Time;durP1;ratioP1;P1;durP2;ratioP2;P2;SDS_P1;SDS_P2;PMS_P1;PMS_P2;Temp;Humidity;BMP_temperature;BMP_pressure;BME280_temperature;BME280_humidity;BME280_pressure;Samples;Min_cycle;Max_cycle;Signal;HPM_P1;HPM_P2
2023/09/19 00:02:05;;;;;;;3.03;1.40;;;18.10;79.90;;;;;;4991518;28;20477;-73
2023/09/19 00:04:34;;;;;;;1.87;1.37;;;18.10;79.90;;;;;;4987544;28;20479;-71
2023/09/19 00:07:01;;;;;;;3.30;1.40;;;18.10;79.90;;;;;;4989181;28;21088;-71
2023/09/19 00:09:27;;;;;;;3.10;1.27;;;18.10;79.90;;;;;;4988207;28;20444;-73
2023/09/19 00:11:53;;;;;;;3.40;1.40;;;18.10;80.00;;;;;;4985420;28;20433;-71
2023/09/19 00:14:19;;;;;;;1.70;1.10;;;18.00;80.30;;;;;;4989912;28;20268;-73
2023/09/19 00:16:46;;;;;;;2.47;1.30;;;18.00;80.60;;;;;;4982635;28;20447;-72
2023/09/19 00:19:12;;;;;;;2.50;1.60;;;17.90;80.90;;;;;;4985274;28;20195;-71
2023/09/19 00:21:38;;;;;;;3.70;1.20;;;18.00;80.90;;;;;;4988515;28;20434;-73
2023/09/19 00:24:08;;;;;;;4.30;1.40;;;17.90;80.90;;;;;;4988651;28;20425;-73
2023/09/19 00:26:34;;;;;;;2.40;1.40;;;17.90;80.80;;;;;;4984922;28;20303;-73
2023/09/19 00:29:08;;;;;;;4.97;1.37;;;17.90;80.90;;;;;;4974049;28;20640;-72
2023/09/19 00:31:34;;;;;;;1.53;1.20;;;17.90;80.90;;;;;;4988331;28;20186;-72
2023/09/19 00:34:06;;;;;;;2.37;1.00;;;17.90;81.10;;;;;;4988640;28;20444;-73
2023/09/19 00:36:33;;;;;;;2.30;1.27;;;17.90;81.20;;;;;;4980732;28;20462;-72
2023/09/19 00:38:59;;;;;;;2.10;1.10;;;18.00;81.20;;;;;;4989004;28;20436;-72
2023/09/19 00:41:26;;;;;;;4.67;1.50;;;17.90;81.10;;;;;;4989270;28;20425;-72
2023/09/19 00:43:52;;;;;;;2.10;1.20;;;17.90;81.20;;;;;;4989172;28;20282;-71
2023/09/19 00:46:18;;;;;;;5.10;1.20;;;17.90;81.10;;;;;;4985438;28;21272;-71
2023/09/19 00:48:43;;;;;;;2.30;1.50;;;17.90;80.90;;;;;;4988735;28;20266;-74
2023/09/19 00:51:10;;;;;;;3.90;1.50;;;17.80;81.10;;;;;;4988834;28;20210;-73
2023/09/19 00:53:35;;;;;;;2.73;1.20;;;17.90;81.10;;;;;;4972797;28;20182;-73
2023/09/19 00:56:04;;;;;;;2.30;1.13;;;17.80;80.80;;;;;;4979800;28;20461;-74
2023/09/19 00:58:33;;;;;;;2.17;1.00;;;17.90;80.60;;;;;;4992932;28;20221;-73
2023/09/19 01:00:59;;;;;;;3.20;1.03;;;17.80;80.80;;;;;;4993081;28;20457;-71
2023/09/19 01:03:24;;;;;;;1.70;1.23;;;17.80;80.90;;;;;;4996584;28;20508;-73
2023/09/19 01:05:50;;;;;;;2.70;1.23;;;17.70;81.20;;;;;;4986790;28;20686;-72
2023/09/19 01:08:16;;;;;;;2.10;1.40;;;17.60;81.40;;;;;;4990493;28;20285;-73
2023/09/19 01:11:17;;;;;;;2.90;1.67;;;17.60;81.50;;;;;;4990062;28;20186;-72
2023/09/19 01:14:13;;;;;;;3.43;1.57;;;17.60;81.50;;;;;;4994254;28;20680;-73
2023/09/19 01:16:55;;;;;;;2.20;1.27;;;17.70;81.20;;;;;;4988627;28;20957;-72
2023/09/19 01:19:38;;;;;;;2.67;1.40;;;17.70;81.40;;;;;;4989311;28;20942;-72
2023/09/19 01:22:34;;;;;;;2.27;1.30;;;17.60;81.40;;;;;;4989993;28;20496;-72
2023/09/19 01:25:15;;;;;;;2.67;1.20;;;17.70;81.20;;;;;;4988673;28;20566;-72
2023/09/19 01:28:07;;;;;;;2.27;1.40;;;17.70;81.10;;;;;;4985409;28;20429;-73
2023/09/19 01:30:39;;;;;;;2.30;1.20;;;17.70;81.10;;;;;;4994262;28;20416;-72
2023/09/19 01:33:06;;;;;;;1.63;1.07;;;17.70;80.90;;;;;;4992283;28;20414;-73
2023/09/19 01:35:34;;;;;;;3.20;1.30;;;17.70;80.90;;;;;;4988202;28;21055;-72
2023/09/19 01:37:59;;;;;;;2.87;1.33;;;17.70;80.80;;;;;;4991016;28;20425;-72
2023/09/19 01:40:25;;;;;;;2.03;1.30;;;17.70;80.80;;;;;;4993107;28;20465;-73
2023/09/19 01:43:17;;;;;;;5.03;1.77;;;17.80;80.60;;;;;;4990555;28;20283;-73
2023/09/19 01:46:07;;;;;;;1.87;1.13;;;17.80;80.60;;;;;;4987169;28;20453;-71
2023/09/19 01:48:42;;;;;;;2.07;1.10;;;17.70;80.30;;;;;;4993379;28;20407;-73
2023/09/19 01:51:11;;;;;;;2.47;1.50;;;17.80;80.20;;;;;;4986604;28;20491;-72
2023/09/19 01:53:53;;;;;;;3.30;1.17;;;17.80;79.90;;;;;;4991786;28;20603;-71
2023/09/19 01:56:35;;;;;;;2.50;1.30;;;17.80;79.90;;;;;;4988308;28;20964;-72
2023/09/19 01:59:06;;;;;;;2.00;1.13;;;17.80;79.70;;;;;;4991371;28;20429;-72
2023/09/19 02:01:35;;;;;;;1.50;0.80;;;17.80;79.50;;;;;;4990844;28;20441;-73
2023/09/19 02:04:01;;;;;;;1.80;1.00;;;17.80;79.50;;;;;;4987130;28;20509;-72
2023/09/19 02:06:28;;;;;;;3.00;1.30;;;17.80;79.30;;;;;;4987540;28;20831;-71
2023/09/19 02:08:54;;;;;;;1.20;0.83;;;17.80;79.30;;;;;;4987857;28;20874;-73
2023/09/19 02:11:20;;;;;;;2.23;1.00;;;17.80;79.50;;;;;;4989012;28;20433;-72
2023/09/19 02:13:46;;;;;;;2.93;1.33;;;17.80;79.50;;;;;;4989743;28;20468;-72
2023/09/19 02:16:12;;;;;;;2.40;1.07;;;17.70;79.50;;;;;;4984767;28;20209;-71
2023/09/19 02:18:39;;;;;;;1.87;1.07;;;17.70;79.60;;;;;;4993470;28;20521;-73
2023/09/19 02:21:06;;;;;;;3.07;1.10;;;17.70;79.60;;;;;;4991315;28;20445;-74
2023/09/19 02:23:33;;;;;;;2.80;1.00;;;17.70;79.70;;;;;;4989096;28;20491;-72
2023/09/19 02:26:00;;;;;;;3.23;1.47;;;17.70;79.90;;;;;;4986605;28;20458;-74
2023/09/19 02:28:29;;;;;;;1.40;0.90;;;17.60;79.90;;;;;;4988944;28;20433;-73
2023/09/19 02:30:56;;;;;;;1.70;0.97;;;17.70;79.70;;;;;;4991040;28;20430;-72
2023/09/19 02:33:22;;;;;;;1.70;1.17;;;17.70;79.70;;;;;;4993023;28;20440;-71
2023/09/19 02:35:48;;;;;;;2.00;0.93;;;17.70;79.90;;;;;;4990279;28;20457;-72
2023/09/19 02:38:14;;;;;;;3.20;1.10;;;17.60;79.90;;;;;;4988657;28;20245;-71
2023/09/19 02:40:40;;;;;;;2.60;1.43;;;17.60;80.00;;;;;;4994149;28;20414;-72
2023/09/19 02:43:06;;;;;;;1.93;1.00;;;17.60;80.20;;;;;;4981748;28;20476;-73
2023/09/19 02:45:32;;;;;;;3.13;1.20;;;17.50;80.20;;;;;;4988051;28;20715;-71
2023/09/19 02:47:58;;;;;;;1.50;0.90;;;17.50;80.30;;;;;;4989447;28;20426;-71
2023/09/19 02:50:23;;;;;;;1.57;1.00;;;17.50;80.50;;;;;;4984066;28;20207;-73
2023/09/19 02:52:49;;;;;;;2.20;1.27;;;17.50;80.50;;;;;;4991322;28;20185;-72
2023/09/19 02:55:19;;;;;;;2.50;1.30;;;17.50;80.50;;;;;;4986957;28;20305;-73
2023/09/19 02:57:52;;;;;;;1.53;1.00;;;17.40;80.60;;;;;;4990583;28;20182;-73
2023/09/19 03:00:21;;;;;;;1.80;1.10;;;17.50;80.60;;;;;;4991598;28;20414;-72
2023/09/19 03:02:53;;;;;;;4.00;1.30;;;17.50;80.60;;;;;;4987755;28;20451;-72
2023/09/19 03:05:20;;;;;;;1.93;1.07;;;17.50;80.50;;;;;;4988118;28;20519;-72
2023/09/19 03:07:50;;;;;;;4.13;1.30;;;17.50;80.50;;;;;;4988331;28;20452;-72
2023/09/19 03:10:17;;;;;;;3.27;1.37;;;17.60;80.30;;;;;;4988860;28;20485;-72
2023/09/19 03:12:43;;;;;;;2.93;1.20;;;17.60;80.30;;;;;;4989815;28;20436;-73
2023/09/19 03:15:09;;;;;;;3.00;1.30;;;17.70;80.20;;;;;;4982244;28;20469;-73
2023/09/19 03:17:35;;;;;;;2.67;1.70;;;17.70;80.20;;;;;;4986792;28;20414;-73
2023/09/19 03:20:01;;;;;;;2.30;1.40;;;17.70;80.30;;;;;;4987326;28;20193;-73
2023/09/19 03:22:28;;;;;;;4.93;1.47;;;17.60;80.30;;;;;;4991273;28;20548;-72
2023/09/19 03:24:54;;;;;;;1.77;0.93;;;17.60;80.30;;;;;;4987943;28;20456;-72
2023/09/19 03:27:20;;;;;;;2.67;1.13;;;17.70;80.30;;;;;;4974593;28;20425;-72
2023/09/19 03:29:46;;;;;;;2.90;1.20;;;17.70;80.30;;;;;;4987183;28;20437;-72
2023/09/19 03:32:12;;;;;;;2.87;1.60;;;17.70;80.30;;;;;;4989510;28;20441;-72
2023/09/19 03:34:42;;;;;;;5.77;1.40;;;17.70;80.30;;;;;;4987713;28;20453;-71
2023/09/19 03:37:10;;;;;;;2.40;1.40;;;17.70;80.50;;;;;;4989205;28;20280;-74
2023/09/19 03:39:36;;;;;;;2.97;1.30;;;17.70;80.60;;;;;;4990904;28;20414;-72
2023/09/19 03:42:03;;;;;;;2.83;1.37;;;17.70;80.50;;;;;;4989256;28;20828;-72
2023/09/19 03:44:30;;;;;;;2.27;1.60;;;17.80;80.00;;;;;;4990933;28;20453;-74
2023/09/19 03:46:56;;;;;;;1.60;1.23;;;17.80;80.00;;;;;;4986226;28;20472;-73
2023/09/19 03:49:22;;;;;;;2.60;1.33;;;17.80;79.90;;;;;;4988041;28;20500;-73
2023/09/19 03:51:48;;;;;;;4.07;1.30;;;17.80;80.00;;;;;;4993899;28;20508;-73
2023/09/19 03:54:13;;;;;;;2.97;1.40;;;17.70;80.20;;;;;;4992721;28;20801;-75
2023/09/19 03:56:39;;;;;;;2.47;1.33;;;17.70;80.30;;;;;;4987242;28;20210;-73
2023/09/19 03:59:04;;;;;;;2.80;1.30;;;17.70;80.50;;;;;;4992578;28;20266;-72
2023/09/19 04:01:32;;;;;;;2.90;1.60;;;17.70;80.60;;;;;;4993693;28;20671;-72
2023/09/19 04:03:58;;;;;;;3.07;1.37;;;17.70;80.60;;;;;;4990027;28;20296;-73
2023/09/19 04:06:24;;;;;;;3.47;1.40;;;17.70;80.60;;;;;;4982489;28;20862;-74
2023/09/19 04:08:49;;;;;;;2.20;1.30;;;17.60;80.80;;;;;;4988544;28;20225;-73
2023/09/19 04:11:15;;;;;;;3.10;1.40;;;17.50;81.10;;;;;;4986400;28;20190;-72
2023/09/19 04:13:41;;;;;;;3.57;1.50;;;17.50;81.10;;;;;;4988489;28;20286;-73
2023/09/19 04:16:10;;;;;;;2.00;1.30;;;17.50;81.20;;;;;;4986296;28;21058;-74
2023/09/19 04:18:38;;;;;;;3.50;1.70;;;17.50;81.20;;;;;;4991608;28;20210;-73
2023/09/19 04:21:05;;;;;;;2.80;1.33;;;17.60;81.10;;;;;;4991058;28;20456;-74
2023/09/19 04:23:31;;;;;;;2.37;1.63;;;17.60;81.20;;;;;;4991653;28;20479;-74
2023/09/19 04:25:58;;;;;;;1.90;1.43;;;17.70;81.10;;;;;;4990651;28;20465;-73
2023/09/19 04:28:24;;;;;;;5.57;1.90;;;17.60;81.10;;;;;;4987968;28;20424;-73
2023/09/19 04:30:50;;;;;;;2.77;1.50;;;17.60;81.20;;;;;;4989268;28;20406;-73
2023/09/19 04:33:15;;;;;;;3.20;1.67;;;17.60;81.40;;;;;;4992181;28;20190;-73
2023/09/19 04:35:42;;;;;;;3.43;1.60;;;17.60;81.50;;;;;;4989668;28;20518;-71
2023/09/19 04:38:08;;;;;;;2.77;1.60;;;17.80;81.20;;;;;;4994965;28;20614;-72
2023/09/19 04:40:34;;;;;;;2.90;1.27;;;17.80;80.80;;;;;;4994400;28;20426;-73
2023/09/19 04:43:00;;;;;;;4.17;1.80;;;17.70;81.10;;;;;;4990554;28;20544;-73
2023/09/19 04:45:27;;;;;;;3.37;1.40;;;17.70;81.20;;;;;;4988371;28;20210;-71
2023/09/19 04:47:53;;;;;;;1.60;1.30;;;17.70;81.50;;;;;;4993800;28;20430;-74
2023/09/19 04:50:19;;;;;;;2.80;1.40;;;17.60;81.50;;;;;;4994056;28;20421;-73
2023/09/19 04:52:45;;;;;;;3.60;1.30;;;17.60;81.70;;;;;;4976817;28;20432;-73
2023/09/19 04:55:17;;;;;;;4.70;1.77;;;17.60;81.70;;;;;;4988274;28;21099;-75
2023/09/19 04:57:47;;;;;;;4.17;2.20;;;17.60;81.90;;;;;;4992791;28;20175;-72
2023/09/19 05:00:18;;;;;;;2.23;1.60;;;17.50;82.70;;;;;;4993782;28;20429;-74
2023/09/19 05:02:44;;;;;;;3.27;1.43;;;17.40;83.60;;;;;;4976588;28;20541;-74
2023/09/19 05:05:11;;;;;;;3.00;1.90;;;17.30;84.40;;;;;;4988557;28;20602;-73
2023/09/19 05:07:37;;;;;;;3.27;1.80;;;17.20;84.90;;;;;;4993248;28;20186;-72
2023/09/19 05:10:06;;;;;;;3.13;1.90;;;17.20;85.20;;;;;;4993711;28;20776;-73
2023/09/19 05:12:34;;;;;;;2.90;1.67;;;17.20;85.70;;;;;;4993684;28;20229;-76
2023/09/19 05:15:01;;;;;;;3.43;1.90;;;17.10;86.00;;;;;;4989040;28;20555;-74
2023/09/19 05:17:27;;;;;;;4.30;1.77;;;17.00;86.30;;;;;;4993115;28;20422;-72
2023/09/19 05:19:52;;;;;;;5.70;2.20;;;17.00;86.60;;;;;;4995490;28;20424;-73
2023/09/19 05:22:18;;;;;;;2.37;1.70;;;16.80;87.00;;;;;;4993492;28;20240;-72
2023/09/19 05:24:47;;;;;;;4.73;2.23;;;16.80;87.60;;;;;;4991791;28;20276;-72
2023/09/19 05:27:20;;;;;;;3.83;1.97;;;16.70;87.80;;;;;;4989029;28;20198;-73
2023/09/19 05:29:46;;;;;;;2.50;1.53;;;16.70;88.10;;;;;;4992846;28;20413;-72
2023/09/19 05:32:12;;;;;;;2.80;1.90;;;16.60;88.30;;;;;;4988520;28;20797;-73
2023/09/19 05:34:38;;;;;;;3.33;2.10;;;16.60;88.60;;;;;;4992633;28;20669;-72
2023/09/19 05:37:07;;;;;;;3.20;2.10;;;16.60;88.70;;;;;;4990292;28;20189;-72
2023/09/19 05:39:33;;;;;;;4.17;1.70;;;16.60;88.90;;;;;;4992940;28;20440;-73
2023/09/19 05:42:00;;;;;;;6.40;2.33;;;16.60;89.00;;;;;;4993275;28;20417;-73
2023/09/19 05:44:25;;;;;;;2.33;1.60;;;16.60;88.70;;;;;;4992110;28;20456;-73
2023/09/19 05:46:51;;;;;;;4.37;2.30;;;16.60;89.00;;;;;;4990128;28;20522;-73
2023/09/19 05:49:17;;;;;;;2.47;1.70;;;16.60;88.70;;;;;;4993195;28;20193;-73
2023/09/19 05:51:43;;;;;;;2.50;1.60;;;16.60;88.60;;;;;;4994309;28;20467;-72
2023/09/19 05:54:09;;;;;;;3.80;2.30;;;16.60;87.10;;;;;;4993059;28;20214;-74
2023/09/19 05:56:34;;;;;;;5.13;2.37;;;16.60;86.80;;;;;;4987701;28;20285;-72
2023/09/19 05:59:00;;;;;;;3.70;1.80;;;16.50;87.30;;;;;;4993084;28;20529;-73
2023/09/19 06:01:26;;;;;;;4.10;2.30;;;16.40;88.00;;;;;;4993099;28;20192;-73
2023/09/19 06:03:52;;;;;;;3.50;1.57;;;16.40;88.30;;;;;;4991788;28;20730;-72
2023/09/19 06:06:18;;;;;;;2.77;1.93;;;16.50;88.30;;;;;;4971202;28;20484;-73
2023/09/19 06:08:44;;;;;;;5.13;1.83;;;16.40;88.40;;;;;;4992503;28;20966;-72
2023/09/19 06:11:10;;;;;;;4.60;1.90;;;16.20;88.60;;;;;;4993870;28;20416;-73
2023/09/19 06:13:39;;;;;;;3.63;2.00;;;16.10;88.90;;;;;;4992205;28;20270;-73
2023/09/19 06:16:04;;;;;;;2.83;1.83;;;16.10;89.30;;;;;;4987638;28;20971;-71
2023/09/19 06:18:33;;;;;;;3.40;1.70;;;16.10;89.70;;;;;;4991471;28;20494;-74
2023/09/19 06:20:59;;;;;;;5.27;2.03;;;16.20;90.00;;;;;;4997354;28;20186;-73
2023/09/19 06:23:26;;;;;;;3.63;2.00;;;16.00;89.30;;;;;;4990915;28;20469;-72
2023/09/19 06:25:54;;;;;;;4.00;2.27;;;15.90;88.40;;;;;;4992980;28;20468;-74
2023/09/19 06:28:24;;;;;;;4.27;2.23;;;16.00;88.60;;;;;;4998589;28;20750;-73
2023/09/19 06:30:50;;;;;;;2.77;2.07;;;15.90;88.10;;;;;;4992678;28;20426;-70
2023/09/19 06:33:17;;;;;;;6.60;3.50;;;16.00;88.00;;;;;;4989829;28;21009;-72
2023/09/19 06:35:44;;;;;;;3.53;2.20;;;16.20;88.10;;;;;;4969139;28;20212;-72
2023/09/19 06:38:12;;;;;;;5.30;2.00;;;16.10;86.80;;;;;;4987654;28;20421;-72
2023/09/19 06:40:39;;;;;;;3.10;2.00;;;16.10;86.50;;;;;;4990096;28;20525;-72
2023/09/19 06:43:05;;;;;;;3.47;2.17;;;16.20;86.00;;;;;;4987030;28;20481;-73
2023/09/19 06:45:31;;;;;;;3.23;2.20;;;16.20;86.30;;;;;;4986656;28;20989;-73
2023/09/19 06:47:59;;;;;;;4.00;2.37;;;16.30;86.30;;;;;;4991049;28;20451;-74
2023/09/19 06:50:25;;;;;;;5.63;1.83;;;16.40;86.50;;;;;;4985380;28;20422;-72
2023/09/19 06:52:53;;;;;;;5.50;2.67;;;16.50;85.90;;;;;;4989516;28;20805;-72
2023/09/19 06:55:20;;;;;;;3.77;2.20;;;16.60;85.50;;;;;;4986922;28;20210;-72
2023/09/19 06:57:49;;;;;;;5.03;2.50;;;16.60;85.70;;;;;;4989642;28;20484;-73
2023/09/19 07:00:18;;;;;;;3.20;2.10;;;16.70;84.90;;;;;;4991813;28;20958;-74
2023/09/19 07:02:57;;;;;;;3.40;2.00;;;16.70;84.90;;;;;;4989331;28;21054;-73
2023/09/19 07:05:22;;;;;;;5.10;2.37;;;16.80;84.90;;;;;;4988087;28;20464;-72
2023/09/19 07:07:48;;;;;;;3.23;2.20;;;16.80;84.30;;;;;;4990419;28;20499;-73
2023/09/19 07:10:14;;;;;;;5.47;2.20;;;16.90;84.00;;;;;;4990858;28;20694;-71
2023/09/19 07:12:41;;;;;;;4.93;2.30;;;16.90;84.30;;;;;;4976739;28;20178;-73
2023/09/19 07:15:06;;;;;;;5.60;2.60;;;17.00;83.80;;;;;;4992091;28;20226;-73
2023/09/19 07:17:33;;;;;;;3.07;1.80;;;17.00;83.80;;;;;;4989413;28;20879;-74
2023/09/19 07:19:59;;;;;;;6.20;1.90;;;16.90;83.10;;;;;;4991144;28;20189;-73
2023/09/19 07:22:26;;;;;;;6.33;2.30;;;16.80;83.10;;;;;;4991561;28;20535;-72
2023/09/19 07:24:52;;;;;;;8.43;2.20;;;16.70;82.70;;;;;;4986019;28;20453;-73
2023/09/19 07:27:18;;;;;;;4.43;2.20;;;16.70;82.40;;;;;;4985381;28;20445;-72
2023/09/19 07:29:44;;;;;;;4.50;2.10;;;16.80;82.40;;;;;;4990687;28;20260;-73
2023/09/19 07:32:10;;;;;;;5.80;2.00;;;16.80;82.10;;;;;;4987179;28;20799;-73
2023/09/19 07:34:36;;;;;;;2.60;1.80;;;16.80;81.90;;;;;;4982745;28;20515;-73
2023/09/19 07:37:02;;;;;;;3.57;2.43;;;16.80;81.80;;;;;;4989099;28;20216;-73
2023/09/19 07:39:28;;;;;;;6.40;2.40;;;16.80;81.90;;;;;;4988578;28;20190;-73
2023/09/19 07:41:54;;;;;;;3.63;2.10;;;16.90;82.10;;;;;;4984627;28;20443;-72
2023/09/19 07:44:20;;;;;;;4.60;2.50;;;17.00;82.40;;;;;;4989520;28;20205;-73
2023/09/19 07:46:45;;;;;;;3.40;1.87;;;17.00;81.90;;;;;;4981739;28;20795;-73
2023/09/19 07:49:11;;;;;;;5.80;2.40;;;17.10;82.20;;;;;;4989753;28;20513;-72
2023/09/19 07:51:37;;;;;;;2.73;1.90;;;17.20;82.20;;;;;;4990988;28;20183;-72
2023/09/19 07:54:02;;;;;;;4.10;2.43;;;17.20;82.50;;;;;;4990573;28;20186;-72
2023/09/19 07:56:28;;;;;;;5.33;2.13;;;17.20;81.70;;;;;;4984600;28;20229;-73
2023/09/19 07:58:54;;;;;;;3.47;2.30;;;17.20;81.80;;;;;;4990098;28;20655;-73
2023/09/19 08:01:19;;;;;;;3.43;2.03;;;17.30;81.90;;;;;;4990260;28;20186;-73
2023/09/19 08:03:45;;;;;;;4.27;2.60;;;17.30;81.40;;;;;;4989510;28;20933;-73
2023/09/19 08:06:11;;;;;;;5.07;2.43;;;17.30;81.70;;;;;;4984184;28;20233;-71
2023/09/19 08:08:37;;;;;;;3.40;2.50;;;17.40;81.40;;;;;;4988778;28;20206;-72
2023/09/19 08:11:11;;;;;;;3.77;2.67;;;17.50;81.20;;;;;;4987059;28;20561;-73
2023/09/19 08:13:41;;;;;;;2.83;2.07;;;17.50;80.80;;;;;;4991244;28;20962;-71
2023/09/19 08:16:06;;;;;;;4.00;2.20;;;17.50;80.00;;;;;;4990052;28;20466;-71
2023/09/19 08:18:33;;;;;;;5.03;2.20;;;17.60;79.70;;;;;;4991666;28;20858;-72
2023/09/19 08:21:00;;;;;;;8.03;2.20;;;17.70;78.90;;;;;;4991870;28;20190;-73
2023/09/19 08:23:26;;;;;;;1.90;1.50;;;17.80;78.70;;;;;;4989910;28;20474;-73
2023/09/19 08:25:56;;;;;;;3.27;1.73;;;17.90;78.10;;;;;;4988197;28;20875;-72
2023/09/19 08:28:24;;;;;;;3.43;2.03;;;17.90;77.60;;;;;;4988778;28;20197;-72
2023/09/19 08:30:50;;;;;;;2.80;1.90;;;18.00;78.00;;;;;;4990223;28;20417;-72
2023/09/19 08:33:16;;;;;;;6.60;2.23;;;18.00;78.00;;;;;;4990047;28;20459;-73
2023/09/19 08:35:42;;;;;;;2.83;1.83;;;18.10;78.30;;;;;;4983882;28;20497;-73
2023/09/19 08:38:08;;;;;;;2.53;1.60;;;18.30;77.80;;;;;;4990012;28;20196;-73
2023/09/19 08:40:39;;;;;;;3.70;1.83;;;18.40;77.10;;;;;;4988310;28;20442;-73
2023/09/19 08:43:05;;;;;;;2.03;1.60;;;18.50;74.30;;;;;;4990233;28;20486;-74
2023/09/19 08:45:32;;;;;;;2.97;1.80;;;18.50;74.80;;;;;;4983854;28;20465;-73
2023/09/19 08:48:15;;;;;;;3.67;1.90;;;18.40;75.10;;;;;;4986644;28;20497;-74
2023/09/19 08:50:47;;;;;;;3.53;1.93;;;18.50;75.50;;;;;;4990498;28;20947;-73
2023/09/19 08:53:22;;;;;;;2.47;1.50;;;18.50;75.90;;;;;;4986577;28;21037;-71
2023/09/19 08:55:51;;;;;;;3.40;1.73;;;18.60;75.80;;;;;;4984574;28;20517;-72
2023/09/19 08:58:19;;;;;;;3.13;2.10;;;18.80;75.90;;;;;;4988010;28;20433;-72
2023/09/19 09:00:49;;;;;;;5.27;2.13;;;18.90;74.80;;;;;;4990449;28;21171;-74
2023/09/19 09:03:19;;;;;;;4.20;1.70;;;19.00;73.00;;;;;;4990189;28;20478;-72
2023/09/19 09:05:46;;;;;;;2.07;1.70;;;19.10;72.90;;;;;;4983813;28;20471;-72
2023/09/19 09:08:13;;;;;;;5.53;1.70;;;19.20;70.50;;;;;;4989666;28;20511;-72
2023/09/19 09:10:40;;;;;;;3.33;1.83;;;19.20;71.00;;;;;;4989851;28;20427;-73
2023/09/19 09:13:06;;;;;;;1.83;1.30;;;19.30;70.40;;;;;;4990441;28;20458;-73
2023/09/19 09:15:35;;;;;;;2.30;1.70;;;19.50;69.90;;;;;;4984648;28;20458;-74
2023/09/19 09:18:04;;;;;;;3.40;1.70;;;19.60;68.90;;;;;;4990506;28;20433;-73
2023/09/19 09:20:30;;;;;;;3.07;1.63;;;19.50;67.60;;;;;;4976374;28;20549;-73
2023/09/19 09:23:00;;;;;;;2.73;1.83;;;19.50;67.90;;;;;;4993189;28;20989;-73
2023/09/19 09:25:50;;;;;;;3.93;1.70;;;19.60;67.60;;;;;;4989505;28;20211;-74
2023/09/19 09:28:23;;;;;;;5.07;2.00;;;19.70;67.30;;;;;;4994176;28;20946;-72
2023/09/19 09:30:50;;;;;;;3.03;1.60;;;19.70;66.70;;;;;;4989209;28;20417;-72
2023/09/19 09:33:16;;;;;;;3.30;1.73;;;19.70;65.00;;;;;;4995174;28;20418;-72
2023/09/19 09:36:00;;;;;;;4.17;1.67;;;19.80;64.50;;;;;;4991845;28;20453;-74
2023/09/19 09:38:43;;;;;;;3.57;1.90;;;19.60;63.80;;;;;;4992110;28;20494;-72
2023/09/19 09:41:09;;;;;;;2.70;1.33;;;19.50;64.50;;;;;;4993306;28;20433;-72
2023/09/19 09:43:41;;;;;;;5.83;1.93;;;19.50;63.50;;;;;;4992395;28;20473;-72
2023/09/19 09:49:11;;;;;;;3.87;2.40;;;19.70;64.50;;;;;;4992487;28;20436;-73
2023/09/19 09:51:33;;;;;;;3.30;1.87;;;19.90;64.70;;;;;;4992062;28;20414;-71
2023/09/19 09:54:34;;;;;;;3.70;1.60;;;20.00;64.10;;;;;;4987530;28;20419;-72
2023/09/19 09:57:13;;;;;;;3.60;1.90;;;20.00;63.80;;;;;;4968923;28;20455;-75
2023/09/19 09:59:53;;;;;;;2.90;1.70;;;20.10;63.80;;;;;;4993086;28;20433;-72
2023/09/19 10:02:32;;;;;;;3.67;1.90;;;20.30;63.20;;;;;;4986873;28;20463;-75
2023/09/19 10:05:07;;;;;;;2.97;1.60;;;20.30;62.90;;;;;;4988863;28;20473;-74
2023/09/19 10:07:36;;;;;;;5.33;1.83;;;20.20;63.10;;;;;;4991810;28;20414;-74
2023/09/19 10:12:48;;;;;;;3.30;1.80;;;20.20;63.90;;;;;;4996696;28;21060;-72
2023/09/19 10:15:16;;;;;;;3.90;2.13;;;20.10;64.20;;;;;;4991628;28;20484;-72
2023/09/19 10:17:46;;;;;;;2.10;1.70;;;20.20;63.70;;;;;;4987483;28;20786;-71
2023/09/19 10:22:59;;;;;;;4.10;1.40;;;20.70;63.80;;;;;;4989020;28;20472;-73
2023/09/19 10:25:28;;;;;;;4.30;1.80;;;20.60;63.80;;;;;;4989489;28;20461;-73
2023/09/19 10:27:55;;;;;;;2.53;1.73;;;20.40;63.80;;;;;;4993206;28;20441;-73
2023/09/19 10:30:22;;;;;;;2.50;1.77;;;20.40;64.20;;;;;;4992826;28;20525;-73
2023/09/19 10:32:56;;;;;;;5.00;1.97;;;20.30;63.80;;;;;;4992841;28;20947;-73
2023/09/19 10:35:23;;;;;;;3.43;1.77;;;20.40;64.20;;;;;;4990132;28;20458;-72
2023/09/19 10:37:51;;;;;;;5.00;2.10;;;20.40;63.90;;;;;;4992693;28;20411;-73
2023/09/19 10:40:20;;;;;;;2.83;1.93;;;20.70;63.80;;;;;;4993239;28;20928;-71
2023/09/19 10:42:48;;;;;;;4.57;2.40;;;20.90;63.20;;;;;;4991530;28;20463;-73
2023/09/19 10:45:20;;;;;;;3.37;2.40;;;21.00;63.20;;;;;;4988548;28;20498;-71
2023/09/19 10:47:46;;;;;;;2.37;1.73;;;21.10;62.80;;;;;;4992223;28;20453;-73
2023/09/19 10:50:21;;;;;;;3.53;1.93;;;21.10;62.80;;;;;;4993625;28;20427;-72
2023/09/19 10:52:52;;;;;;;3.73;1.70;;;21.30;62.50;;;;;;4994225;28;20420;-72
2023/09/19 10:55:19;;;;;;;2.90;1.80;;;21.50;61.90;;;;;;4989755;28;20600;-75
2023/09/19 10:57:46;;;;;;;2.57;1.70;;;21.40;61.60;;;;;;4993600;28;20920;-72
2023/09/19 11:00:28;;;;;;;2.83;1.67;;;21.20;61.60;;;;;;4994333;28;20497;-73
2023/09/19 11:03:18;;;;;;;5.07;1.80;;;21.20;62.00;;;;;;4991335;28;20530;-72
2023/09/19 11:06:05;;;;;;;4.37;1.83;;;21.00;61.70;;;;;;4983800;28;21068;-72
2023/09/19 11:08:51;;;;;;;2.40;1.37;;;21.10;62.30;;;;;;4991682;28;20424;-73
2023/09/19 11:11:38;;;;;;;3.37;1.80;;;20.90;62.20;;;;;;4991837;28;20498;-72
2023/09/19 11:14:37;;;;;;;2.27;1.60;;;21.00;62.30;;;;;;4986997;28;20422;-74
2023/09/19 11:17:07;;;;;;;2.23;1.60;;;21.00;62.60;;;;;;4989451;28;20439;-74
2023/09/19 11:22:50;;;;;;;4.40;1.70;;;21.20;62.00;;;;;;4992177;28;20478;-73
2023/09/19 11:25:31;;;;;;;3.03;1.73;;;21.40;61.90;;;;;;4989732;28;20447;-72
2023/09/19 11:28:07;;;;;;;3.10;2.10;;;21.40;60.70;;;;;;4986823;28;20474;-71
2023/09/19 11:30:36;;;;;;;3.20;1.90;;;21.50;61.20;;;;;;4992077;28;20411;-73
2023/09/19 11:36:09;;;;;;;2.13;1.50;;;21.80;60.90;;;;;;4990290;28;20480;-71
2023/09/19 11:38:44;;;;;;;2.80;1.40;;;21.20;59.70;;;;;;4991143;28;20508;-72
2023/09/19 11:41:23;;;;;;;3.20;1.50;;;21.00;60.60;;;;;;4986222;28;20414;-72
2023/09/19 11:43:54;;;;;;;3.20;1.50;;;21.30;60.10;;;;;;4990343;28;20486;-72
2023/09/19 11:46:21;;;;;;;2.70;1.50;;;21.40;59.20;;;;;;4986638;28;20589;-72
2023/09/19 11:48:51;;;;;;;4.30;1.90;;;21.20;59.90;;;;;;4991894;28;20418;-73
2023/09/19 11:51:23;;;;;;;1.70;1.20;;;21.30;59.90;;;;;;4992206;28;20440;-73
2023/09/19 11:53:50;;;;;;;2.87;1.70;;;21.40;59.50;;;;;;4991625;28;20655;-72
2023/09/19 11:56:23;;;;;;;3.30;1.73;;;21.90;59.20;;;;;;4985694;28;20472;-73
2023/09/19 11:58:53;;;;;;;8.10;1.70;;;22.10;58.10;;;;;;4992075;28;20793;-74
2023/09/19 12:01:33;;;;;;;2.13;1.40;;;22.10;57.70;;;;;;4989469;28;20424;-74
2023/09/19 12:04:01;;;;;;;3.40;1.60;;;22.20;58.10;;;;;;4989247;28;20491;-74
2023/09/19 12:06:29;;;;;;;2.67;1.30;;;21.90;58.90;;;;;;4988552;28;20471;-74
2023/09/19 12:08:57;;;;;;;3.23;1.80;;;21.80;58.90;;;;;;4998117;28;20443;-73
2023/09/19 12:11:23;;;;;;;2.57;1.60;;;21.80;59.70;;;;;;4993711;28;20503;-75
2023/09/19 12:13:50;;;;;;;2.63;1.33;;;22.20;58.70;;;;;;4992892;28;20432;-72
2023/09/19 12:16:23;;;;;;;4.77;1.90;;;22.30;58.10;;;;;;4987207;28;20472;-72
2023/09/19 12:18:50;;;;;;;3.03;2.07;;;22.20;58.20;;;;;;4990272;28;20501;-73
2023/09/19 12:21:32;;;;;;;3.57;1.97;;;22.00;58.80;;;;;;4991670;28;20424;-75
2023/09/19 12:24:05;;;;;;;2.10;1.30;;;22.20;58.80;;;;;;4987813;28;20564;-74
2023/09/19 12:26:41;;;;;;;2.47;1.53;;;22.50;58.10;;;;;;4986700;28;20464;-72
2023/09/19 12:29:20;;;;;;;3.47;1.40;;;22.80;57.60;;;;;;4991583;28;20436;-72
2023/09/19 12:31:55;;;;;;;3.70;1.50;;;22.90;56.60;;;;;;4991841;28;21004;-73
2023/09/19 12:34:28;;;;;;;2.70;1.50;;;22.50;57.70;;;;;;4990093;28;20428;-75
2023/09/19 12:37:13;;;;;;;5.20;1.83;;;22.60;57.40;;;;;;4984804;28;20455;-73
2023/09/19 12:39:52;;;;;;;1.80;1.20;;;22.80;57.60;;;;;;4989236;28;20532;-74
2023/09/19 12:42:22;;;;;;;3.90;1.63;;;22.90;57.20;;;;;;4990736;28;20427;-72
2023/09/19 12:45:00;;;;;;;2.93;1.70;;;23.20;56.60;;;;;;4985451;28;20448;-72
2023/09/19 12:47:27;;;;;;;3.07;1.40;;;23.10;57.20;;;;;;4988644;28;20452;-72
2023/09/19 12:50:06;;;;;;;2.83;1.50;;;22.70;57.60;;;;;;4991269;28;20503;-74
2023/09/19 12:52:56;;;;;;;1.87;1.60;;;22.30;58.50;;;;;;4988697;28;20425;-74
2023/09/19 12:55:36;;;;;;;3.10;1.50;;;22.30;58.90;;;;;;4986269;28;20453;-73
2023/09/19 12:58:09;;;;;;;5.83;1.60;;;22.70;58.50;;;;;;4994511;28;20443;-75
2023/09/19 13:00:38;;;;;;;4.30;1.67;;;22.50;56.90;;;;;;4992359;28;20432;-74
2023/09/19 13:03:15;;;;;;;2.77;1.73;;;22.40;57.40;;;;;;4974641;28;20485;-72
2023/09/19 13:05:55;;;;;;;3.70;1.93;;;22.50;57.80;;;;;;4989156;28;20449;-74
2023/09/19 13:08:42;;;;;;;3.17;1.73;;;23.10;57.40;;;;;;4986443;28;20445;-74
2023/09/19 13:11:17;;;;;;;5.43;1.73;;;23.60;56.80;;;;;;4991748;28;21393;-72
2023/09/19 13:14:10;;;;;;;3.80;1.60;;;23.70;55.70;;;;;;4994131;28;20562;-74
2023/09/19 13:16:55;;;;;;;2.00;1.40;;;23.20;56.10;;;;;;4988965;28;20546;-73